createdAt,value
2023-02-01T00:00:28.858Z,96557.97
2023-02-01T00:02:55.344Z,96552.78
2023-02-01T00:05:24.948Z,96559.47
2023-02-01T00:07:51.461Z,96557.28
2023-02-01T00:10:18.750Z,96555.13
2023-02-01T00:12:45.605Z,96554.19
2023-02-01T00:15:12.782Z,96558.69
2023-02-01T00:17:39.299Z,96553.25
2023-02-01T00:20:06.399Z,96553.88
2023-02-01T00:22:32.940Z,96564.53
2023-02-01T00:24:59.420Z,96562.63
2023-02-01T00:27:25.947Z,96565.38
2023-02-01T00:29:52.408Z,96558.34
2023-02-01T00:32:18.890Z,96563.75
2023-02-01T00:34:45.419Z,96565.78
2023-02-01T00:37:12.024Z,96563.28
2023-02-01T00:39:38.509Z,96563.00
2023-02-01T00:42:05.019Z,96568.00
2023-02-01T00:44:31.493Z,96564.16
2023-02-01T00:46:57.953Z,96561.84
2023-02-01T00:49:24.455Z,96555.19
2023-02-01T00:51:50.966Z,96562.69
2023-02-01T00:54:17.607Z,96558.75
2023-02-01T00:56:44.385Z,96557.69
2023-02-01T00:59:14.126Z,96552.06
2023-02-01T01:01:40.935Z,96555.81
2023-02-01T01:04:07.700Z,96551.63
2023-02-01T01:06:35.516Z,96551.63
2023-02-01T01:09:05.337Z,96549.56
2023-02-01T01:11:35.469Z,96543.22
2023-02-01T01:14:02.630Z,96547.50
2023-02-01T01:16:31.935Z,96547.69
2023-02-01T01:18:59.964Z,96546.00
2023-02-01T01:21:29.401Z,96552.47
2023-02-01T01:23:56.465Z,96551.03
2023-02-01T01:26:26.210Z,96548.81
2023-02-01T01:28:55.206Z,96547.56
2023-02-01T01:31:21.861Z,96545.63
2023-02-01T01:33:53.422Z,96539.56
2023-02-01T01:36:20.632Z,96540.41
2023-02-01T01:38:47.139Z,96550.81
2023-02-01T01:41:21.455Z,96560.41
2023-02-01T01:43:56.860Z,96553.72
2023-02-01T01:46:29.123Z,96558.75
2023-02-01T01:49:06.671Z,96552.56
2023-02-01T01:51:50.089Z,96546.66
2023-02-01T01:54:20.260Z,96544.47
2023-02-01T01:56:53.855Z,96541.44
2023-02-01T01:59:24.083Z,96540.19
2023-02-01T02:01:52.420Z,96539.84
2023-02-01T02:04:20.395Z,96528.91
2023-02-01T02:07:00.645Z,96533.09
2023-02-01T02:09:27.182Z,96531.66
2023-02-01T02:11:53.679Z,96536.66
2023-02-01T02:14:26.023Z,96521.63
2023-02-01T02:17:12.140Z,96519.56
2023-02-01T02:19:53.447Z,96521.44
2023-02-01T02:22:46.014Z,96519.38
2023-02-01T02:26:02.656Z,96506.00
2023-02-01T02:28:44.381Z,96505.00
2023-02-01T02:31:29.454Z,96506.84
2023-02-01T02:34:35.809Z,96502.69
2023-02-01T02:37:36.143Z,96504.97
2023-02-01T02:40:23.596Z,96505.38
2023-02-01T02:43:13.452Z,96508.31
2023-02-01T02:45:52.933Z,96506.44
2023-02-01T02:48:33.823Z,96508.75
2023-02-01T02:51:29.938Z,96508.94
2023-02-01T02:54:06.202Z,96508.94
2023-02-01T02:56:36.016Z,96514.34
2023-02-01T02:59:05.735Z,96519.97
2023-02-01T03:01:33.951Z,96522.88
2023-02-01T03:04:00.503Z,96516.44
2023-02-01T03:06:27.012Z,96520.19
2023-02-01T03:08:59.126Z,96517.06
2023-02-01T03:11:27.081Z,96517.34
2023-02-01T03:13:57.230Z,96519.53
2023-02-01T03:16:38.259Z,96517.88
2023-02-01T03:19:15.268Z,96520.47
2023-02-01T03:24:26.534Z,96529.78
2023-02-01T03:26:58.703Z,96527.59
2023-02-01T03:29:37.626Z,96529.75
2023-02-01T03:32:04.552Z,96529.75
2023-02-01T03:34:31.158Z,96526.63
2023-02-01T03:37:07.285Z,96524.34
2023-02-01T03:40:01.049Z,96528.09
2023-02-01T03:42:45.868Z,96522.06
2023-02-01T03:45:25.435Z,96522.06
2023-02-01T03:47:57.911Z,96526.66
2023-02-01T03:50:28.544Z,96519.97
2023-02-01T03:53:17.521Z,96517.06
2023-02-01T03:55:44.735Z,96526.75
2023-02-01T03:58:15.440Z,96526.66
2023-02-01T04:00:46.907Z,96525.50
2023-02-01T04:03:13.554Z,96524.56
2023-02-01T04:05:40.210Z,96525.50
2023-02-01T04:08:06.773Z,96531.25
2023-02-01T04:10:33.502Z,96534.56
2023-02-01T04:13:04.895Z,96535.59
2023-02-01T04:15:31.367Z,96531.88
2023-02-01T04:17:57.863Z,96532.88
2023-02-01T04:20:24.821Z,96540.38
2023-02-01T04:22:51.522Z,96542.47
2023-02-01T04:25:18.103Z,96548.63
2023-02-01T04:27:44.947Z,96557.34
2023-02-01T04:30:12.338Z,96556.25
2023-02-01T04:32:39.618Z,96554.78
2023-02-01T04:35:08.252Z,96558.53
2023-02-01T04:37:35.276Z,96559.88
2023-02-01T04:40:01.831Z,96561.09
2023-02-01T04:42:28.303Z,96562.69
2023-02-01T04:44:54.784Z,96560.72
2023-02-01T04:47:21.250Z,96556.22
2023-02-01T04:49:47.704Z,96563.31
2023-02-01T04:52:14.196Z,96572.06
2023-02-01T04:54:40.704Z,96569.13
2023-02-01T04:57:07.182Z,96557.88
2023-02-01T04:59:33.627Z,96561.72
2023-02-01T05:02:00.104Z,96560.75
2023-02-01T05:04:26.734Z,96571.38
2023-02-01T05:06:53.278Z,96575.75
2023-02-01T05:09:19.798Z,96578.09
2023-02-01T05:11:46.305Z,96577.66
2023-02-01T05:14:12.902Z,96579.25
2023-02-01T05:16:39.490Z,96582.09
2023-02-01T05:19:06.020Z,96576.47
2023-02-01T05:21:32.565Z,96571.88
2023-02-01T05:23:59.082Z,96580.09
2023-02-01T05:26:27.356Z,96579.56
2023-02-01T05:28:53.877Z,96589.97
2023-02-01T05:31:20.751Z,96595.47
2023-02-01T05:33:47.411Z,96595.81
2023-02-01T05:36:14.176Z,96612.38
2023-02-01T05:38:41.248Z,96612.03
2023-02-01T05:41:08.112Z,96612.50
2023-02-01T05:43:34.572Z,96621.88
2023-02-01T05:46:01.197Z,96617.50
2023-02-01T05:48:27.868Z,96622.09
2023-02-01T05:50:54.467Z,96615.00
2023-02-01T05:53:21.428Z,96621.34
2023-02-01T05:55:47.900Z,96621.44
2023-02-01T05:58:14.448Z,96626.63
2023-02-01T06:00:41.135Z,96622.06
2023-02-01T06:03:08.954Z,96630.09
2023-02-01T06:05:35.474Z,96628.78
2023-02-01T06:08:01.974Z,96631.69
2023-02-01T06:10:28.455Z,96636.41
2023-02-01T06:12:54.930Z,96644.84
2023-02-01T06:15:21.438Z,96645.25
2023-02-01T06:17:48.092Z,96648.59
2023-02-01T06:20:15.879Z,96641.28
2023-02-01T06:22:42.384Z,96644.84
2023-02-01T06:25:10.508Z,96647.97
2023-02-01T06:27:37.102Z,96649.00
2023-02-01T06:30:05.324Z,96642.34
2023-02-01T06:32:32.060Z,96649.44
2023-02-01T06:34:58.561Z,96652.34
2023-02-01T06:37:25.319Z,96658.41
2023-02-01T06:39:52.121Z,96660.34
2023-02-01T06:42:18.623Z,96665.56
2023-02-01T06:44:45.128Z,96668.88
2023-02-01T06:47:14.629Z,96670.34
2023-02-01T06:49:41.881Z,96675.75
2023-02-01T06:52:08.359Z,96681.50
2023-02-01T06:54:34.850Z,96681.28
2023-02-01T06:57:01.338Z,96677.22
2023-02-01T06:59:27.834Z,96682.53
2023-02-01T07:01:54.395Z,96681.59
2023-02-01T07:04:20.920Z,96686.72
2023-02-01T07:06:47.456Z,96673.03
2023-02-01T07:09:14.022Z,96668.44
2023-02-01T07:11:40.615Z,96668.13
2023-02-01T07:14:07.238Z,96676.34
2023-02-01T07:16:33.833Z,96688.25
2023-02-01T07:19:00.352Z,96688.97
2023-02-01T07:21:26.842Z,96688.25
2023-02-01T07:23:53.345Z,96687.31
2023-02-01T07:26:19.933Z,96693.66
2023-02-01T07:28:46.720Z,96702.97
2023-02-01T07:31:16.953Z,96685.97
2023-02-01T07:33:43.438Z,96687.19
2023-02-01T07:36:14.221Z,96687.38
2023-02-01T07:38:40.707Z,96686.44
2023-02-01T07:41:07.419Z,96684.88
2023-02-01T07:43:34.672Z,96678.59
2023-02-01T07:46:02.303Z,96687.38
2023-02-01T07:48:29.156Z,96677.53
2023-02-01T07:50:59.900Z,96678.16
2023-02-01T07:53:27.157Z,96685.88
2023-02-01T07:55:54.040Z,96690.59
2023-02-01T07:58:20.546Z,96679.53
2023-02-01T08:00:47.061Z,96674.00
2023-02-01T08:03:13.556Z,96673.59
2023-02-01T08:05:40.128Z,96665.22
2023-02-01T08:08:07.557Z,96665.19
2023-02-01T08:10:34.457Z,96675.38
2023-02-01T08:13:02.165Z,96681.06
2023-02-01T08:15:29.696Z,96687.19
2023-02-01T08:17:56.586Z,96685.09
2023-02-01T08:20:24.130Z,96694.28
2023-02-01T08:22:54.209Z,96714.78
2023-02-01T08:25:21.130Z,96721.31
2023-02-01T08:27:48.329Z,96710.34
2023-02-01T08:30:14.905Z,96708.06
2023-02-01T08:32:41.562Z,96714.94
2023-02-01T08:35:09.049Z,96706.72
2023-02-01T08:37:35.588Z,96710.25
2023-02-01T08:40:02.298Z,96698.44
2023-02-01T08:42:28.924Z,96703.44
2023-02-01T08:44:55.784Z,96709.06
2023-02-01T08:47:22.870Z,96703.50
2023-02-01T08:49:49.401Z,96712.50
2023-02-01T08:52:16.470Z,96726.25
2023-02-01T08:54:43.028Z,96716.22
2023-02-01T08:57:09.529Z,96710.59
2023-02-01T08:59:36.026Z,96702.84
2023-02-01T09:02:02.623Z,96701.75
2023-02-01T09:04:29.145Z,96713.47
2023-02-01T09:06:55.825Z,96720.06
2023-02-01T09:09:28.198Z,96728.13
2023-02-01T09:11:54.755Z,96740.19
2023-02-01T09:14:21.308Z,96738.88
2023-02-01T09:16:47.837Z,96735.66
2023-02-01T09:19:25.914Z,96719.50
2023-02-01T09:21:53.131Z,96727.94
2023-02-01T09:24:19.717Z,96750.13
2023-02-01T09:26:46.240Z,96757.31
2023-02-01T09:29:12.826Z,96759.50
2023-02-01T09:31:44.145Z,96765.25
2023-02-01T09:34:13.563Z,96765.16
2023-02-01T09:36:40.069Z,96764.28
2023-02-01T09:39:06.609Z,96764.84
2023-02-01T09:41:39.091Z,96770.75
2023-02-01T09:44:35.616Z,96774.66
2023-02-01T09:47:12.999Z,96774.66
2023-02-01T09:49:51.665Z,96774.03
2023-02-01T09:52:31.494Z,96774.59
2023-02-01T09:55:06.389Z,96781.81
2023-02-01T09:58:10.301Z,96785.97
2023-02-01T10:03:32.715Z,96786.59
2023-02-01T10:05:15.263Z,96780.44
2023-02-01T10:07:55.120Z,96786.59
2023-02-01T10:10:46.719Z,96789.31
2023-02-01T10:13:28.178Z,96798.72
2023-02-01T10:16:17.749Z,96800.34
2023-02-01T10:19:07.031Z,96801.06
2023-02-01T10:21:48.646Z,96793.56
2023-02-01T10:24:34.134Z,96798.72
2023-02-01T10:27:25.858Z,96790.38
2023-02-01T10:30:00.328Z,96789.44
2023-02-01T10:32:35.420Z,96783.25
2023-02-01T10:35:37.495Z,96767.19
2023-02-01T10:38:26.327Z,96776.72
2023-02-01T10:40:57.859Z,96775.81
2023-02-01T10:43:24.656Z,96771.19
2023-02-01T10:45:51.197Z,96765.72
2023-02-01T10:48:18.037Z,96768.88
2023-02-01T10:51:06.665Z,96769.75
2023-02-01T10:53:54.149Z,96768.00
2023-02-01T10:56:28.969Z,96759.91
2023-02-01T10:59:07.452Z,96753.38
2023-02-01T11:01:42.687Z,96751.19
2023-02-01T11:04:15.632Z,96738.13
2023-02-01T11:06:45.715Z,96731.78
2023-02-01T11:09:21.161Z,96729.34
2023-02-01T11:11:47.612Z,96719.28
2023-02-01T11:14:20.212Z,96728.03
2023-02-01T11:16:58.993Z,96730.59
2023-02-01T11:19:25.534Z,96719.94
2023-02-01T11:21:54.864Z,96714.63
2023-02-01T11:24:32.090Z,96717.81
2023-02-01T11:27:01.493Z,96709.25
2023-02-01T11:29:37.612Z,96703.34
2023-02-01T11:32:05.576Z,96695.13
2023-02-01T11:34:40.527Z,96692.38
2023-02-01T11:37:21.708Z,96693.34
2023-02-01T11:40:00.230Z,96680.44
2023-02-01T11:42:29.198Z,96682.84
2023-02-01T11:45:24.943Z,96677.63
2023-02-01T11:47:56.931Z,96670.13
2023-02-01T11:50:36.681Z,96673.53
2023-02-01T11:53:16.689Z,96673.91
2023-02-01T11:55:53.301Z,96672.72
2023-02-01T11:58:54.028Z,96669.38
2023-02-01T12:02:03.709Z,96658.81
2023-02-01T12:04:56.622Z,96659.31
2023-02-01T12:07:50.683Z,96650.78
2023-02-01T12:10:56.354Z,96657.66
2023-02-01T12:13:49.812Z,96660.47
2023-02-01T12:16:35.031Z,96666.75
2023-02-01T12:19:29.710Z,96659.44
2023-02-01T12:22:27.025Z,96658.84
2023-02-01T12:25:18.083Z,96666.44
2023-02-01T12:27:56.962Z,96659.66
2023-02-01T12:30:48.155Z,96665.22
2023-02-01T12:33:39.380Z,96658.81
2023-02-01T12:36:15.299Z,96656.09
2023-02-01T12:38:55.445Z,96663.47
2023-02-01T12:41:49.893Z,96650.84
2023-02-01T12:44:37.455Z,96638.97
2023-02-01T12:47:12.882Z,96638.16
2023-02-01T12:50:03.015Z,96633.97
2023-02-01T12:52:47.279Z,96625.75
2023-02-01T12:55:24.555Z,96628.84
2023-02-01T12:57:57.158Z,96626.47
2023-02-01T13:00:37.065Z,96619.81
2023-02-01T13:03:37.275Z,96615.06
2023-02-01T13:06:18.610Z,96611.91
2023-02-01T13:09:00.451Z,96613.97
2023-02-01T13:11:40.231Z,96626.38
2023-02-01T13:14:24.722Z,96620.19
2023-02-01T13:17:02.689Z,96617.28
2023-02-01T13:19:35.827Z,96614.06
2023-02-01T13:22:14.266Z,96598.00
2023-02-01T13:25:12.908Z,96590.75
2023-02-01T13:27:40.763Z,96588.31
2023-02-01T13:30:25.278Z,96581.38
2023-02-01T13:33:52.494Z,96582.63
2023-02-01T13:36:39.902Z,96581.28
2023-02-01T13:39:45.889Z,96563.22
2023-02-01T13:42:26.478Z,96555.63
2023-02-01T13:45:00.821Z,96564.47
2023-02-01T13:47:35.840Z,96561.00
2023-02-01T13:50:26.954Z,96558.38
2023-02-01T13:53:00.555Z,96551.00
2023-02-01T13:55:37.882Z,96561.34
2023-02-01T13:58:19.389Z,96560.38
2023-02-01T14:00:46.690Z,96568.81
2023-02-01T14:03:19.091Z,96571.81
2023-02-01T14:05:45.569Z,96569.00
2023-02-01T14:08:15.354Z,96568.56
2023-02-01T14:10:58.441Z,96575.72
2023-02-01T14:13:38.250Z,96562.97
2023-02-01T14:16:05.008Z,96571.47
2023-02-01T14:18:34.312Z,96563.28
2023-02-01T14:21:23.023Z,96557.66
2023-02-01T14:24:17.430Z,96562.75
2023-02-01T14:26:50.952Z,96557.41
2023-02-01T14:29:21.394Z,96551.25
2023-02-01T14:32:06.777Z,96554.94
2023-02-01T14:34:48.117Z,96546.66
2023-02-01T14:37:17.622Z,96548.63
2023-02-01T14:39:47.170Z,96546.34
2023-02-01T14:42:38.515Z,96545.16
2023-02-01T14:45:20.433Z,96539.84
2023-02-01T14:47:49.042Z,96544.69
2023-02-01T14:50:27.754Z,96551.06
2023-02-01T14:53:09.605Z,96547.81
2023-02-01T14:56:06.921Z,96560.06
2023-02-01T14:58:50.042Z,96558.88
2023-02-01T15:01:28.332Z,96561.78
2023-02-01T15:04:03.484Z,96552.38
2023-02-01T15:06:43.125Z,96558.00
2023-02-01T15:09:12.038Z,96556.47
2023-02-01T15:11:57.191Z,96559.84
2023-02-01T15:14:24.318Z,96556.72
2023-02-01T15:16:50.925Z,96557.84
2023-02-01T15:19:17.465Z,96567.63
2023-02-01T15:21:50.665Z,96570.63
2023-02-01T15:24:25.095Z,96575.16
2023-02-01T15:26:54.310Z,96580.75
2023-02-01T15:29:24.116Z,96580.59
2023-02-01T15:31:53.395Z,96590.56
2023-02-01T15:34:21.490Z,96586.53
2023-02-01T15:37:00.687Z,96574.25
2023-02-01T15:39:29.338Z,96581.94
2023-02-01T15:42:14.378Z,96581.78
2023-02-01T15:44:46.720Z,96587.66
2023-02-01T15:47:20.868Z,96606.78
2023-02-01T15:49:53.731Z,96614.84
2023-02-01T15:52:33.071Z,96614.66
2023-02-01T15:55:05.964Z,96612.06
2023-02-01T15:57:37.720Z,96611.44
2023-02-01T16:00:08.992Z,96618.00
2023-02-01T16:02:42.396Z,96613.09
2023-02-01T16:05:36.111Z,96622.50
2023-02-01T16:08:16.154Z,96623.28
2023-02-01T16:10:46.966Z,96628.31
2023-02-01T16:13:15.830Z,96638.72
2023-02-01T16:15:43.041Z,96641.34
2023-02-01T16:18:10.565Z,96639.16
2023-02-01T16:20:40.393Z,96644.84
2023-02-01T16:23:08.600Z,96642.38
2023-02-01T16:25:35.908Z,96653.72
2023-02-01T16:28:02.420Z,96657.44
2023-02-01T16:30:28.971Z,96651.22
2023-02-01T16:32:58.030Z,96656.06
2023-02-01T16:35:28.646Z,96649.81
2023-02-01T16:37:55.585Z,96651.09
2023-02-01T16:40:22.673Z,96652.19
2023-02-01T16:42:54.198Z,96648.59
2023-02-01T16:45:20.882Z,96657.16
2023-02-01T16:47:57.888Z,96656.59
2023-02-01T16:50:26.640Z,96662.72
2023-02-01T16:52:54.258Z,96675.41
2023-02-01T16:55:22.913Z,96664.78
2023-02-01T16:57:50.948Z,96671.50
2023-02-01T17:00:24.450Z,96669.56
2023-02-01T17:02:52.367Z,96681.31
2023-02-01T17:05:18.952Z,96671.94
2023-02-01T17:07:46.270Z,96674.13
2023-02-01T17:10:33.436Z,96673.16
2023-02-01T17:13:00.865Z,96670.91
2023-02-01T17:15:33.761Z,96678.94
2023-02-01T17:18:01.091Z,96673.09
2023-02-01T17:20:31.667Z,96670.28
2023-02-01T17:22:59.004Z,96669.03
2023-02-01T17:25:28.405Z,96672.78
2023-02-01T17:27:54.899Z,96681.38
2023-02-01T17:30:21.660Z,96679.72
2023-02-01T17:32:48.324Z,96676.13
2023-02-01T17:35:22.360Z,96677.28
2023-02-01T17:37:50.745Z,96689.06
2023-02-01T17:40:18.002Z,96697.28
2023-02-01T17:42:47.956Z,96689.25
2023-02-01T17:45:30.075Z,96684.84
2023-02-01T17:47:56.561Z,96680.72
2023-02-01T17:50:28.049Z,96673.00
2023-02-01T17:52:54.513Z,96676.06
2023-02-01T17:55:25.712Z,96681.28
2023-02-01T17:57:52.549Z,96684.84
2023-02-01T18:00:19.602Z,96685.66
2023-02-01T18:02:46.457Z,96686.22
2023-02-01T18:05:36.711Z,96699.31
2023-02-01T18:08:03.280Z,96710.31
2023-02-01T18:10:30.444Z,96704.63
2023-02-01T18:12:57.049Z,96710.94
2023-02-01T18:15:26.010Z,96712.09
2023-02-01T18:17:53.965Z,96705.84
2023-02-01T18:20:23.956Z,96690.69
2023-02-01T18:22:51.488Z,96694.06
2023-02-01T18:25:22.473Z,96697.84
2023-02-01T18:27:51.548Z,96708.78
2023-02-01T18:30:22.169Z,96702.19
2023-02-01T18:32:50.049Z,96698.47
2023-02-01T18:35:21.370Z,96700.50
2023-02-01T18:37:49.878Z,96709.66
2023-02-01T18:40:19.655Z,96704.41
2023-02-01T18:42:46.919Z,96708.84
2023-02-01T18:45:39.427Z,96709.66
2023-02-01T18:48:08.159Z,96709.03
2023-02-01T18:50:38.473Z,96716.06
2023-02-01T18:53:08.094Z,96714.78
2023-02-01T18:55:34.755Z,96704.56
2023-02-01T18:58:04.659Z,96700.38
2023-02-01T19:00:31.173Z,96701.56
2023-02-01T19:02:58.259Z,96698.72
2023-02-01T19:05:28.149Z,96706.75
2023-02-01T19:07:54.696Z,96708.72
2023-02-01T19:10:23.261Z,96707.50
2023-02-01T19:12:51.717Z,96713.00
2023-02-01T19:15:19.086Z,96711.78
2023-02-01T19:17:48.905Z,96723.25
2023-02-01T19:20:18.931Z,96716.53
2023-02-01T19:22:46.366Z,96715.78
2023-02-01T19:25:17.317Z,96708.91
2023-02-01T19:27:45.605Z,96707.97
2023-02-01T19:30:12.859Z,96703.28
2023-02-01T19:32:40.161Z,96708.63
2023-02-01T19:35:08.294Z,96711.44
2023-02-01T19:37:35.089Z,96717.19
2023-02-01T19:40:01.776Z,96724.88
2023-02-01T19:42:28.452Z,96724.41
2023-02-01T19:44:54.948Z,96731.72
2023-02-01T19:47:21.455Z,96725.91
2023-02-01T19:49:48.043Z,96732.00
2023-02-01T19:52:14.528Z,96737.03
2023-02-01T19:54:40.994Z,96732.28
2023-02-01T19:57:07.523Z,96735.94
2023-02-01T19:59:34.020Z,96739.41
2023-02-01T20:01:59.606Z,96743.56
2023-02-01T20:04:26.217Z,96745.03
2023-02-01T20:06:52.692Z,96745.56
2023-02-01T20:09:21.723Z,96742.94
2023-02-01T20:11:48.765Z,96743.59
2023-02-01T20:14:15.869Z,96745.84
2023-02-01T20:16:42.925Z,96746.41
2023-02-01T20:19:10.679Z,96742.31
2023-02-01T20:21:39.205Z,96747.75
2023-02-01T20:24:06.258Z,96751.06
2023-02-01T20:26:34.342Z,96739.81
2023-02-01T20:29:02.299Z,96753.38
2023-02-01T20:31:31.821Z,96750.47
2023-02-01T20:34:00.324Z,96753.81
2023-02-01T20:36:28.566Z,96759.13
2023-02-01T20:38:56.752Z,96749.16
2023-02-01T20:41:24.625Z,96762.69
2023-02-01T20:43:51.248Z,96762.94
2023-02-01T20:46:17.905Z,96760.38
2023-02-01T20:48:46.496Z,96761.47
2023-02-01T20:51:14.995Z,96762.53
2023-02-01T20:53:42.252Z,96758.41
2023-02-01T20:56:13.509Z,96760.50
2023-02-01T20:58:40.759Z,96764.94
2023-02-01T21:01:07.739Z,96760.28
2023-02-01T21:03:35.091Z,96752.84
2023-02-01T21:06:03.084Z,96754.44
2023-02-01T21:08:30.715Z,96753.66
2023-02-01T21:11:12.123Z,96757.91
2023-02-01T21:13:41.662Z,96752.03
2023-02-01T21:16:11.541Z,96756.88
2023-02-01T21:18:38.285Z,96754.53
2023-02-01T21:21:12.523Z,96759.41
2023-02-01T21:23:39.150Z,96758.03
2023-02-01T21:26:05.722Z,96760.16
2023-02-01T21:28:32.292Z,96752.38
2023-02-01T21:30:58.833Z,96737.94
2023-02-01T21:33:25.325Z,96746.94
2023-02-01T21:35:52.230Z,96748.56
2023-02-01T21:38:18.745Z,96753.31
2023-02-01T21:40:45.345Z,96753.06
2023-02-01T21:43:11.904Z,96751.16
2023-02-01T21:45:41.600Z,96754.75
2023-02-01T21:48:10.279Z,96751.41
2023-02-01T21:50:36.759Z,96751.41
2023-02-01T21:53:03.203Z,96750.88
2023-02-01T21:55:29.906Z,96747.31
2023-02-01T21:57:56.377Z,96748.41
2023-02-01T22:00:22.857Z,96751.41
2023-02-01T22:02:49.321Z,96753.78
2023-02-01T22:05:15.842Z,96757.47
2023-02-01T22:07:42.422Z,96770.25
2023-02-01T22:10:12.979Z,96774.50
2023-02-01T22:12:39.553Z,96774.78
2023-02-01T22:15:06.313Z,96775.41
2023-02-01T22:17:32.848Z,96782.19
2023-02-01T22:19:59.331Z,96786.38
2023-02-01T22:22:25.785Z,96786.13
2023-02-01T22:24:52.434Z,96783.91
2023-02-01T22:27:18.913Z,96787.72
2023-02-01T22:29:45.402Z,96794.88
2023-02-01T22:32:12.611Z,96796.22
2023-02-01T22:34:39.477Z,96798.13
2023-02-01T22:37:06.247Z,96802.28
2023-02-01T22:39:32.686Z,96805.03
2023-02-01T22:41:59.270Z,96805.84
2023-02-01T22:44:25.821Z,96806.59
2023-02-01T22:46:52.511Z,96813.56
2023-02-01T22:49:18.983Z,96814.03
2023-02-01T22:51:45.473Z,96806.03
2023-02-01T22:54:20.937Z,96800.44
2023-02-01T22:56:48.473Z,96802.38
2023-02-01T22:59:15.309Z,96792.34
2023-02-01T23:01:42.842Z,96792.94
2023-02-01T23:04:12.621Z,96790.66
2023-02-01T23:06:39.968Z,96796.59
2023-02-01T23:09:26.723Z,96798.88
2023-02-01T23:11:54.274Z,96797.53
2023-02-01T23:14:21.459Z,96795.16
2023-02-01T23:16:49.480Z,96802.56
2023-02-01T23:19:17.034Z,96791.63
2023-02-01T23:21:43.731Z,96794.94
2023-02-01T23:24:10.210Z,96790.47
2023-02-01T23:26:37.920Z,96785.47
2023-02-01T23:29:05.242Z,96781.75
2023-02-01T23:31:33.991Z,96785.44
2023-02-01T23:34:02.718Z,96782.44
2023-02-01T23:36:29.809Z,96784.50
2023-02-01T23:38:56.378Z,96779.25
2023-02-01T23:41:24.269Z,96772.09
2023-02-01T23:43:50.831Z,96777.09
2023-02-01T23:46:18.425Z,96777.31
2023-02-01T23:48:47.199Z,96785.41
2023-02-01T23:51:15.346Z,96776.38
2023-02-01T23:53:41.814Z,96770.31
2023-02-01T23:56:08.419Z,96765.88
2023-02-01T23:58:34.947Z,96765.78
